Ansley, Louisiana
Current Conditions -  °F | °C
As of 7:35 AM on Friday 28 Nov 2014 (Local Time) from KRSN Reporting Station
Clear Clear  
Wind Chill: 29°   Ceiling: Unl
Heat Index: 35°   Visibility: 10mi
Dew Point: 33°   Wind: 7mph
Humidity: 93%   Direction: 170°S
Pressure: 30.42"   Gusts: NA
Location:  32.5075°N, 92.6828°W
Report Text: KRSN 281335Z AUTO 17006KT 10SM CLR 02/01 A3042 RMK AO2 T00150005
Loading
Personal Weather Stations






























Interactive Weather Map New forecast layout! Learn more

10-Day Weather Forecast

Advertisements
Track Severe Weather on mobile